createdAt,value
2019-03-10T00:01:37.371Z,76.94
2019-03-10T00:04:43.699Z,78.00
2019-03-10T00:07:50.025Z,78.67
2019-03-10T00:10:56.626Z,77.60
2019-03-10T00:14:02.999Z,78.02
2019-03-10T00:17:09.717Z,77.58
2019-03-10T00:20:16.038Z,77.38
2019-03-10T00:23:23.262Z,78.13
2019-03-10T00:26:29.621Z,77.48
2019-03-10T00:29:35.893Z,78.30
2019-03-10T00:32:42.280Z,78.53
2019-03-10T00:35:48.874Z,78.18
2019-03-10T00:39:36.429Z,77.65
2019-03-10T00:43:05.159Z,77.91
2019-03-10T00:46:51.625Z,76.12
2019-03-10T00:51:13.748Z,76.07
2019-03-10T00:54:20.121Z,75.76
2019-03-10T00:57:26.886Z,75.80
2019-03-10T01:00:33.434Z,76.06
2019-03-10T01:03:39.866Z,75.44
2019-03-10T01:06:46.256Z,76.01
2019-03-10T01:09:52.845Z,75.11
2019-03-10T01:12:59.171Z,77.01
2019-03-10T01:16:05.480Z,75.65
2019-03-10T01:19:12.146Z,75.74
2019-03-10T01:22:18.627Z,75.06
2019-03-10T01:25:24.972Z,75.90
2019-03-10T01:28:31.820Z,75.55
2019-03-10T01:32:21.056Z,76.15
2019-03-10T01:35:34.120Z,75.00
2019-03-10T01:38:40.404Z,75.22
2019-03-10T01:41:46.641Z,75.40
2019-03-10T01:44:53.104Z,75.58
2019-03-10T01:47:59.534Z,75.06
2019-03-10T01:51:05.975Z,75.65
2019-03-10T01:54:12.550Z,76.03
2019-03-10T01:57:19.051Z,76.34
2019-03-10T02:00:25.550Z,75.63
2019-03-10T02:03:32.045Z,76.48
2019-03-10T02:06:38.526Z,76.14
2019-03-10T02:09:44.995Z,75.57
2019-03-10T02:12:51.391Z,76.66
2019-03-10T02:15:58.051Z,75.82
2019-03-10T02:19:04.424Z,75.34
2019-03-10T02:22:10.867Z,75.85
2019-03-10T02:25:17.347Z,75.82
2019-03-10T02:28:25.060Z,76.46
2019-03-10T02:31:31.416Z,76.14
2019-03-10T02:34:37.757Z,75.80
2019-03-10T02:37:44.437Z,75.63
2019-03-10T02:40:50.751Z,76.02
2019-03-10T02:43:57.258Z,75.97
2019-03-10T02:47:03.559Z,76.29
2019-03-10T02:50:10.627Z,75.75
2019-03-10T02:53:17.001Z,76.39
2019-03-10T02:56:23.414Z,76.68
2019-03-10T02:59:30.022Z,76.32
2019-03-10T03:02:36.931Z,76.80
2019-03-10T03:05:43.549Z,76.64
2019-03-10T03:08:49.870Z,77.36
2019-03-10T03:11:56.312Z,77.02
2019-03-10T03:15:03.527Z,76.96
2019-03-10T03:18:10.622Z,76.77
2019-03-10T03:21:18.273Z,77.43
2019-03-10T03:24:24.675Z,77.38
2019-03-10T03:27:31.142Z,77.02
2019-03-10T03:30:37.402Z,77.66
2019-03-10T03:33:43.815Z,77.32
2019-03-10T03:36:50.229Z,76.90
2019-03-10T03:39:57.621Z,77.22
2019-03-10T03:43:03.945Z,77.35
2019-03-10T03:46:10.358Z,77.76
2019-03-10T03:49:16.758Z,77.47
2019-03-10T03:52:23.218Z,77.47
2019-03-10T03:55:29.475Z,77.03
2019-03-10T03:58:35.848Z,77.17
2019-03-10T04:02:00.189Z,77.04
2019-03-10T04:05:07.038Z,77.29
2019-03-10T04:08:16.280Z,76.85
2019-03-10T04:11:22.727Z,76.96
2019-03-10T04:14:30.085Z,77.21
2019-03-10T04:17:37.886Z,78.31
2019-03-10T04:20:44.206Z,77.94
2019-03-10T04:23:50.599Z,78.15
2019-03-10T04:26:57.092Z,76.87
2019-03-10T04:30:03.442Z,77.02
2019-03-10T04:33:09.916Z,77.51
2019-03-10T04:36:16.403Z,77.10
2019-03-10T04:39:22.730Z,77.11
2019-03-10T04:42:29.143Z,77.09
2019-03-10T04:45:35.567Z,77.73
2019-03-10T04:48:41.970Z,76.81
2019-03-10T04:51:48.414Z,77.81
2019-03-10T04:55:26.139Z,77.26
2019-03-10T04:58:33.297Z,77.64
2019-03-10T05:01:39.592Z,78.44
2019-03-10T05:04:46.392Z,78.17
2019-03-10T05:07:53.037Z,78.28
2019-03-10T05:10:59.437Z,77.90
2019-03-10T05:14:06.026Z,78.08
2019-03-10T05:17:12.447Z,78.67
2019-03-10T05:20:18.827Z,78.11
2019-03-10T05:23:37.856Z,78.42
2019-03-10T05:26:44.199Z,78.47
2019-03-10T05:29:50.712Z,78.50
2019-03-10T05:32:57.033Z,78.01
2019-03-10T05:36:03.431Z,77.91
2019-03-10T05:39:09.773Z,78.04
2019-03-10T05:42:16.272Z,77.79
2019-03-10T05:45:22.653Z,78.02
2019-03-10T05:48:28.991Z,78.25
2019-03-10T05:51:35.514Z,76.89
2019-03-10T05:54:41.865Z,77.92
2019-03-10T05:57:48.310Z,77.92
2019-03-10T06:00:54.548Z,77.47
2019-03-10T06:04:00.930Z,77.81
2019-03-10T06:07:09.390Z,76.89
2019-03-10T06:10:16.600Z,77.12
2019-03-10T06:13:23.037Z,77.36
2019-03-10T06:16:30.341Z,77.50
2019-03-10T06:19:39.472Z,77.90
2019-03-10T06:22:45.763Z,77.73
2019-03-10T06:25:52.068Z,77.31
2019-03-10T06:28:58.438Z,77.61
2019-03-10T06:32:04.816Z,76.74
2019-03-10T06:35:11.626Z,75.64
2019-03-10T06:38:18.697Z,76.02
2019-03-10T06:41:25.370Z,75.40
2019-03-10T06:44:31.774Z,74.96
2019-03-10T06:47:38.453Z,75.03
2019-03-10T06:50:45.173Z,73.60
2019-03-10T06:53:51.639Z,72.72
2019-03-10T06:56:58.453Z,73.52
2019-03-10T07:00:05.463Z,74.06
2019-03-10T07:03:12.448Z,74.05
2019-03-10T07:06:19.329Z,73.76
2019-03-10T07:09:26.137Z,72.70
2019-03-10T07:12:33.422Z,72.67
2019-03-10T07:15:39.870Z,73.98
2019-03-10T07:18:46.262Z,73.17
2019-03-10T07:21:52.893Z,73.03
2019-03-10T07:24:59.445Z,73.23
2019-03-10T07:28:14.353Z,74.95
2019-03-10T07:31:38.272Z,72.46
2019-03-10T07:34:54.317Z,72.67
2019-03-10T07:38:14.386Z,72.41
2019-03-10T07:41:52.140Z,71.85
2019-03-10T07:45:04.179Z,71.74
2019-03-10T07:48:24.832Z,71.63
2019-03-10T07:51:40.623Z,69.49
2019-03-10T07:55:24.790Z,69.61
2019-03-10T07:58:43.177Z,70.28
2019-03-10T08:02:07.383Z,67.94
2019-03-10T08:05:29.862Z,66.93
2019-03-10T08:09:00.407Z,66.66
2019-03-10T08:12:20.923Z,66.17
2019-03-10T08:15:40.369Z,64.80
2019-03-10T08:18:59.235Z,65.26
2019-03-10T08:22:24.580Z,65.75
2019-03-10T08:25:44.061Z,63.64
2019-03-10T08:29:12.467Z,61.20
2019-03-10T08:32:49.890Z,61.20
2019-03-10T08:36:13.548Z,60.50
2019-03-10T08:39:29.165Z,59.36
2019-03-10T08:42:44.466Z,58.86
2019-03-10T08:46:03.239Z,60.81
2019-03-10T08:49:26.569Z,60.74
2019-03-10T08:52:42.956Z,57.65
2019-03-10T08:56:05.991Z,57.97
2019-03-10T08:59:32.005Z,57.50
2019-03-10T09:03:00.761Z,58.61
2019-03-10T09:06:16.472Z,58.65
2019-03-10T09:09:30.902Z,58.52
2019-03-10T09:12:46.925Z,57.88
2019-03-10T09:16:15.816Z,57.45
2019-03-10T09:19:44.407Z,57.24
2019-03-10T09:23:21.654Z,56.88
2019-03-10T09:26:42.652Z,56.28
2019-03-10T09:30:07.972Z,54.85
2019-03-10T09:33:39.443Z,53.53
2019-03-10T09:37:07.979Z,53.44
2019-03-10T09:40:30.562Z,52.50
2019-03-10T09:43:51.195Z,52.50
2019-03-10T09:47:22.478Z,52.05
2019-03-10T09:50:47.421Z,51.40
2019-03-10T09:54:11.799Z,49.43
2019-03-10T09:57:25.180Z,48.76
2019-03-10T10:00:51.562Z,47.67
2019-03-10T10:04:13.335Z,48.95
2019-03-10T10:07:29.618Z,48.45
2019-03-10T10:10:54.015Z,47.58
2019-03-10T10:14:12.639Z,46.80
2019-03-10T10:17:37.210Z,46.18
2019-03-10T10:21:15.897Z,46.32
2019-03-10T10:24:31.296Z,46.71
2019-03-10T10:27:57.044Z,44.60
2019-03-10T10:31:22.701Z,44.87
2019-03-10T10:34:44.546Z,44.05
2019-03-10T10:38:25.149Z,43.30
2019-03-10T10:41:44.535Z,42.92
2019-03-10T10:45:12.978Z,41.87
2019-03-10T10:48:42.784Z,39.97
2019-03-10T10:52:12.762Z,40.82
2019-03-10T10:55:50.159Z,41.59
2019-03-10T10:59:20.099Z,42.08
2019-03-10T11:02:54.738Z,42.46
2019-03-10T11:06:20.045Z,41.70
2019-03-10T11:09:36.274Z,42.14
2019-03-10T11:12:58.235Z,42.33
2019-03-10T11:16:19.704Z,41.67
2019-03-10T11:19:45.259Z,41.80
2019-03-10T11:23:10.876Z,42.15
2019-03-10T11:26:39.033Z,40.89
2019-03-10T11:30:07.847Z,41.58
2019-03-10T11:33:36.375Z,41.64
2019-03-10T11:37:00.324Z,40.30
2019-03-10T11:40:25.764Z,40.67
2019-03-10T11:43:44.342Z,40.04
2019-03-10T11:46:59.754Z,39.93
2019-03-10T11:50:31.842Z,39.15
2019-03-10T11:54:03.106Z,39.15
2019-03-10T11:57:23.835Z,40.94
2019-03-10T12:00:35.594Z,41.55
2019-03-10T12:04:05.758Z,39.80
2019-03-10T12:07:21.970Z,40.11
2019-03-10T12:10:28.973Z,41.19
2019-03-10T12:13:35.355Z,42.72
2019-03-10T12:16:41.753Z,42.86
2019-03-10T12:19:53.494Z,42.14
2019-03-10T12:23:02.574Z,41.26
2019-03-10T12:26:08.953Z,42.76
2019-03-10T12:29:15.582Z,40.23
2019-03-10T12:32:24.719Z,41.23
2019-03-10T12:35:34.630Z,40.20
2019-03-10T12:38:39.161Z,40.61
2019-03-10T12:41:45.571Z,41.28
2019-03-10T12:44:53.042Z,40.98
2019-03-10T12:47:59.643Z,40.85
2019-03-10T12:51:06.038Z,41.35
2019-03-10T12:54:15.271Z,41.14
2019-03-10T12:57:21.599Z,41.86
2019-03-10T13:00:29.719Z,42.11
2019-03-10T13:03:36.167Z,42.23
2019-03-10T13:06:42.660Z,41.82
2019-03-10T13:09:49.050Z,41.57
2019-03-10T13:12:55.566Z,41.13
2019-03-10T13:16:01.955Z,41.88
2019-03-10T13:19:08.429Z,42.93
2019-03-10T13:22:15.276Z,43.50
2019-03-10T13:25:21.956Z,44.16
2019-03-10T13:28:28.344Z,45.10
2019-03-10T13:31:35.098Z,46.02
2019-03-10T13:34:41.757Z,47.32
2019-03-10T13:37:49.857Z,46.67
2019-03-10T13:40:56.238Z,47.47
2019-03-10T13:44:03.115Z,47.49
2019-03-10T13:47:09.515Z,47.38
2019-03-10T13:50:16.322Z,45.45
2019-03-10T13:53:22.664Z,50.63
2019-03-10T13:56:30.577Z,46.61
2019-03-10T13:59:36.921Z,46.57
2019-03-10T14:02:43.375Z,47.97
2019-03-10T14:05:49.698Z,47.09
2019-03-10T14:08:56.368Z,47.82
2019-03-10T14:12:02.739Z,47.11
2019-03-10T14:15:09.576Z,48.03
2019-03-10T14:18:17.129Z,47.92
2019-03-10T14:21:24.273Z,47.51
2019-03-10T14:24:31.212Z,49.15
2019-03-10T14:27:41.153Z,47.80
2019-03-10T14:30:47.580Z,47.97
2019-03-10T14:33:53.993Z,48.97
2019-03-10T14:37:00.550Z,47.91
2019-03-10T14:40:08.206Z,48.17
2019-03-10T14:43:15.706Z,48.23
2019-03-10T14:46:22.124Z,47.63
2019-03-10T14:49:28.439Z,47.32
2019-03-10T14:52:34.825Z,48.21
2019-03-10T14:55:41.324Z,47.60
2019-03-10T14:58:48.037Z,47.97
2019-03-10T15:01:54.421Z,48.09
2019-03-10T15:05:00.814Z,49.92
2019-03-10T15:08:07.236Z,50.25
2019-03-10T15:11:13.875Z,53.19
2019-03-10T15:14:20.222Z,53.79
2019-03-10T15:17:27.043Z,53.65
2019-03-10T15:20:42.025Z,53.65
2019-03-10T15:23:51.692Z,56.14
2019-03-10T15:27:00.026Z,53.78
2019-03-10T15:30:10.704Z,54.35
2019-03-10T15:33:19.267Z,53.10
2019-03-10T15:36:25.602Z,54.88
2019-03-10T15:39:31.927Z,54.63
2019-03-10T15:42:38.284Z,55.30
2019-03-10T15:45:44.560Z,54.39
2019-03-10T15:48:50.953Z,55.18
2019-03-10T15:51:57.683Z,53.08
2019-03-10T15:55:04.128Z,52.70
2019-03-10T15:58:10.703Z,51.63
2019-03-10T16:01:17.142Z,52.30
2019-03-10T16:04:26.737Z,50.45
2019-03-10T16:07:33.191Z,52.11
2019-03-10T16:10:39.564Z,48.25
2019-03-10T16:13:46.108Z,47.85
2019-03-10T16:16:52.473Z,48.55
2019-03-10T16:19:58.901Z,47.69
2019-03-10T16:23:05.465Z,48.79
2019-03-10T16:26:12.000Z,48.77
2019-03-10T16:29:18.645Z,48.91
2019-03-10T16:32:25.543Z,51.36
2019-03-10T16:35:31.875Z,51.36
2019-03-10T16:38:38.917Z,51.65
2019-03-10T16:41:45.427Z,52.18
2019-03-10T16:44:51.983Z,51.04
2019-03-10T16:47:59.276Z,50.35
2019-03-10T16:51:05.900Z,49.98
2019-03-10T16:54:12.750Z,51.13
2019-03-10T16:57:19.253Z,51.35
2019-03-10T17:00:26.979Z,51.44
2019-03-10T17:03:33.809Z,53.43
2019-03-10T17:06:40.167Z,54.47
2019-03-10T17:09:46.679Z,53.21
2019-03-10T17:12:53.165Z,52.59
2019-03-10T17:15:59.547Z,52.96
2019-03-10T17:19:09.452Z,52.88
2019-03-10T17:22:15.138Z,54.05
2019-03-10T17:25:21.584Z,54.80
2019-03-10T17:28:28.196Z,54.19
2019-03-10T17:31:34.802Z,53.54
2019-03-10T17:34:41.496Z,53.13
2019-03-10T17:37:48.919Z,52.31
2019-03-10T17:40:56.549Z,52.97
2019-03-10T17:44:02.914Z,53.05
2019-03-10T17:47:09.702Z,53.13
2019-03-10T17:50:16.268Z,53.90
2019-03-10T17:53:22.861Z,53.89
2019-03-10T17:56:29.268Z,54.49
2019-03-10T17:59:36.140Z,54.16
2019-03-10T18:02:42.733Z,53.40
2019-03-10T18:05:49.315Z,53.48
2019-03-10T18:08:55.716Z,54.31
2019-03-10T18:12:02.191Z,53.92
2019-03-10T18:15:09.737Z,53.72
2019-03-10T18:18:16.287Z,54.73
2019-03-10T18:21:22.554Z,55.15
2019-03-10T18:24:28.840Z,55.32
2019-03-10T18:27:35.267Z,55.43
2019-03-10T18:30:41.890Z,56.36
2019-03-10T18:33:51.038Z,55.98
2019-03-10T18:36:57.761Z,55.07
2019-03-10T18:40:04.930Z,57.07
2019-03-10T18:43:11.701Z,56.49
2019-03-10T18:46:18.279Z,54.89
2019-03-10T18:49:26.158Z,55.23
2019-03-10T18:52:35.644Z,56.40
2019-03-10T18:55:42.335Z,56.24
2019-03-10T18:58:48.788Z,56.83
2019-03-10T19:01:55.416Z,56.77
2019-03-10T19:05:01.709Z,57.42
2019-03-10T19:08:08.725Z,57.52
2019-03-10T19:11:15.464Z,58.97
2019-03-10T19:14:22.012Z,59.48
2019-03-10T19:17:28.367Z,60.94
2019-03-10T19:20:34.979Z,60.45
2019-03-10T19:23:41.368Z,60.07
2019-03-10T19:26:47.753Z,60.39
2019-03-10T19:29:54.197Z,60.21
2019-03-10T19:33:01.943Z,59.88
2019-03-10T19:36:08.512Z,60.69
2019-03-10T19:39:15.196Z,61.15
2019-03-10T19:42:26.670Z,60.73
2019-03-10T19:45:37.790Z,61.23
2019-03-10T19:48:44.259Z,62.24
2019-03-10T19:51:57.953Z,62.43
2019-03-10T19:55:07.564Z,61.92
2019-03-10T19:58:14.223Z,63.42
2019-03-10T20:01:20.521Z,62.53
2019-03-10T20:04:30.150Z,61.80
2019-03-10T20:07:36.782Z,64.03
2019-03-10T20:10:48.159Z,62.72
2019-03-10T20:13:54.732Z,62.42
2019-03-10T20:17:01.067Z,62.37
2019-03-10T20:20:11.231Z,63.24
2019-03-10T20:23:17.817Z,62.70
2019-03-10T20:26:36.366Z,63.50
2019-03-10T20:29:48.905Z,63.71
2019-03-10T20:32:55.348Z,62.69
2019-03-10T20:36:01.805Z,62.34
2019-03-10T20:39:08.856Z,63.33
2019-03-10T20:42:16.754Z,63.28
2019-03-10T20:45:24.612Z,63.46
2019-03-10T20:48:31.318Z,63.21
2019-03-10T20:51:37.725Z,63.48
2019-03-10T20:54:44.289Z,63.65
2019-03-10T20:57:50.690Z,63.09
2019-03-10T21:00:57.315Z,62.82
2019-03-10T21:04:03.657Z,63.51
2019-03-10T21:07:10.479Z,62.42
2019-03-10T21:10:16.889Z,63.39
2019-03-10T21:13:23.356Z,62.64
2019-03-10T21:16:29.624Z,63.16
2019-03-10T21:19:36.123Z,63.81
2019-03-10T21:22:42.468Z,63.66
2019-03-10T21:25:48.987Z,63.57
2019-03-10T21:28:55.463Z,63.55
2019-03-10T21:32:01.865Z,63.74
2019-03-10T21:35:17.150Z,63.66
2019-03-10T21:38:16.655Z,63.62
2019-03-10T21:41:24.081Z,63.58
2019-03-10T21:44:30.770Z,64.61
2019-03-10T21:47:37.110Z,63.59
2019-03-10T21:50:43.630Z,64.86
2019-03-10T21:53:49.893Z,63.70
2019-03-10T21:56:56.300Z,64.38
2019-03-10T22:00:02.635Z,63.89
2019-03-10T22:03:10.615Z,63.54
2019-03-10T22:06:18.573Z,63.63
2019-03-10T22:09:24.967Z,64.85
2019-03-10T22:12:31.394Z,64.27
2019-03-10T22:15:41.989Z,63.64
2019-03-10T22:18:46.788Z,64.40
2019-03-10T22:21:53.224Z,64.43
2019-03-10T22:24:59.497Z,64.49
2019-03-10T22:28:06.014Z,64.60
2019-03-10T22:31:12.413Z,64.49
2019-03-10T22:34:18.817Z,64.78
2019-03-10T22:37:25.163Z,64.76
2019-03-10T22:40:31.535Z,65.68
2019-03-10T22:43:38.168Z,64.61
2019-03-10T22:46:44.912Z,65.23
2019-03-10T22:49:51.409Z,64.18
2019-03-10T22:52:57.917Z,64.83
2019-03-10T22:56:04.348Z,64.73
2019-03-10T22:59:10.758Z,64.68
2019-03-10T23:02:17.236Z,65.93
2019-03-10T23:05:23.841Z,65.20
2019-03-10T23:08:30.262Z,65.04
2019-03-10T23:11:36.590Z,65.30
2019-03-10T23:14:43.016Z,64.94
2019-03-10T23:17:49.409Z,64.94
2019-03-10T23:20:55.733Z,65.08
2019-03-10T23:24:02.386Z,64.85
2019-03-10T23:27:09.486Z,64.98
2019-03-10T23:30:16.098Z,65.59
2019-03-10T23:33:22.429Z,65.22
2019-03-10T23:36:28.768Z,65.46
2019-03-10T23:39:35.103Z,65.20
2019-03-10T23:42:41.726Z,65.20
2019-03-10T23:45:48.646Z,64.68
2019-03-10T23:48:55.153Z,65.64
2019-03-10T23:52:01.419Z,65.02
2019-03-10T23:55:08.046Z,65.23
2019-03-10T23:58:14.354Z,65.73
